createdAt,value
2022-08-20T00:02:15.533Z,100965.84
2022-08-20T00:04:44.034Z,100978.06
2022-08-20T00:07:12.306Z,100962.72
2022-08-20T00:09:41.581Z,100978.63
2022-08-20T00:12:10.281Z,100969.19
2022-08-20T00:14:41.824Z,100976.25
2022-08-20T00:17:09.708Z,100965.28
2022-08-20T00:19:37.601Z,100969.97
2022-08-20T00:22:06.016Z,100962.63
2022-08-20T00:24:34.790Z,100969.25
2022-08-20T00:27:03.387Z,100973.44
2022-08-20T00:29:31.408Z,100974.97
2022-08-20T00:32:01.064Z,100981.16
2022-08-20T00:34:29.397Z,100974.53
2022-08-20T00:36:57.313Z,100978.97
2022-08-20T00:39:25.176Z,100985.19
2022-08-20T00:41:53.033Z,100975.84
2022-08-20T00:44:22.986Z,100972.94
2022-08-20T00:46:51.865Z,100981.94
2022-08-20T00:49:24.840Z,100963.88
2022-08-20T00:51:58.050Z,100964.09
2022-08-20T00:54:31.374Z,100962.56
2022-08-20T00:57:03.819Z,100959.63
2022-08-20T00:59:35.109Z,100971.00
2022-08-20T01:02:05.222Z,100975.50
2022-08-20T01:04:36.163Z,100974.25
2022-08-20T01:07:06.505Z,100978.06
2022-08-20T01:09:58.467Z,100977.22
2022-08-20T01:12:26.584Z,100970.25
2022-08-20T01:14:55.980Z,100974.47
2022-08-20T01:17:26.768Z,100978.88
2022-08-20T01:20:00.616Z,100975.41
2022-08-20T01:22:53.600Z,100979.03
2022-08-20T01:25:29.612Z,100992.44
2022-08-20T01:28:00.041Z,100988.03
2022-08-20T01:30:29.999Z,100992.63
2022-08-20T01:32:57.966Z,100997.56
2022-08-20T01:35:27.120Z,100995.38
2022-08-20T01:37:55.214Z,101003.03
2022-08-20T01:40:37.592Z,100987.38
2022-08-20T01:43:09.188Z,100995.84
2022-08-20T01:45:40.207Z,100993.31
2022-08-20T01:48:09.594Z,101002.06
2022-08-20T01:50:42.919Z,101006.78
2022-08-20T01:53:19.296Z,101002.94
2022-08-20T01:55:47.519Z,101011.34
2022-08-20T01:58:17.226Z,101012.03
2022-08-20T02:00:45.186Z,101007.22
2022-08-20T02:03:13.041Z,101005.91
2022-08-20T02:05:41.026Z,101017.41
2022-08-20T02:08:09.264Z,101004.97
2022-08-20T02:10:37.773Z,100994.97
2022-08-20T02:13:08.504Z,101014.28
2022-08-20T02:15:39.808Z,101009.72
2022-08-20T02:18:14.849Z,100996.16
2022-08-20T02:20:44.456Z,101014.88
2022-08-20T02:23:13.160Z,101010.00
2022-08-20T02:25:43.805Z,101017.56
2022-08-20T02:28:15.078Z,101008.88
2022-08-20T02:30:49.531Z,101004.78
2022-08-20T02:33:20.489Z,101018.00
2022-08-20T02:35:53.851Z,101022.56
2022-08-20T02:38:21.657Z,101021.38
2022-08-20T02:40:50.629Z,101012.84
2022-08-20T02:43:20.166Z,101014.47
2022-08-20T02:45:49.516Z,101025.66
2022-08-20T02:48:20.897Z,101023.59
2022-08-20T02:50:52.679Z,101024.03
2022-08-20T02:53:20.603Z,101033.34
2022-08-20T02:55:48.708Z,101028.97
2022-08-20T02:58:17.291Z,101036.78
2022-08-20T03:00:45.369Z,101031.84
2022-08-20T03:03:15.389Z,101033.91
2022-08-20T03:05:45.380Z,101020.78
2022-08-20T03:08:14.814Z,101036.75
2022-08-20T03:10:45.215Z,101033.03
2022-08-20T03:13:15.281Z,101033.50
2022-08-20T03:15:46.663Z,101027.69
2022-08-20T03:18:19.665Z,101032.69
2022-08-20T03:20:52.113Z,101030.72
2022-08-20T03:23:21.584Z,101033.56
2022-08-20T03:25:50.051Z,101035.78
2022-08-20T03:28:19.533Z,101018.72
2022-08-20T03:30:47.743Z,101043.81
2022-08-20T03:33:17.228Z,101044.75
2022-08-20T03:35:45.322Z,101046.84
2022-08-20T03:38:14.423Z,101046.41
2022-08-20T03:40:43.797Z,101056.88
2022-08-20T03:43:12.352Z,101054.50
2022-08-20T03:45:43.840Z,101050.97
2022-08-20T03:48:15.016Z,101057.19
2022-08-20T03:50:45.269Z,101052.59
2022-08-20T03:53:14.887Z,101054.22
2022-08-20T03:55:45.432Z,101042.56
2022-08-20T03:58:34.915Z,101044.03
2022-08-20T04:01:05.853Z,101046.03
2022-08-20T04:03:34.203Z,101044.28
2022-08-20T04:06:03.666Z,101044.38
2022-08-20T04:08:31.431Z,101043.03
2022-08-20T04:11:00.344Z,101042.69
2022-08-20T04:13:30.152Z,101033.59
2022-08-20T04:15:58.804Z,101029.19
2022-08-20T04:18:27.655Z,101023.22
2022-08-20T04:20:56.207Z,101037.38
2022-08-20T04:23:25.611Z,101040.03
2022-08-20T04:25:56.648Z,101034.19
2022-08-20T04:28:28.749Z,101028.75
2022-08-20T04:30:58.912Z,101020.13
2022-08-20T04:33:35.286Z,101037.22
2022-08-20T04:36:06.332Z,101038.81
2022-08-20T04:38:49.960Z,101043.22
2022-08-20T04:41:21.174Z,101047.44
2022-08-20T04:43:53.130Z,101047.44
2022-08-20T04:46:22.486Z,101050.47
2022-08-20T04:48:50.794Z,101058.56
2022-08-20T04:51:19.537Z,101055.97
2022-08-20T04:53:54.537Z,101054.59
2022-08-20T04:56:24.545Z,101054.72
2022-08-20T04:58:53.994Z,101036.16
2022-08-20T05:01:23.749Z,101043.41
2022-08-20T05:03:54.801Z,101046.41
2022-08-20T05:06:25.081Z,101035.44
2022-08-20T05:08:54.585Z,101039.75
2022-08-20T05:11:34.365Z,101051.22
2022-08-20T05:14:07.923Z,101041.81
2022-08-20T05:16:40.622Z,101039.91
2022-08-20T05:19:10.827Z,101050.25
2022-08-20T05:21:38.862Z,101050.19
2022-08-20T05:24:10.080Z,101070.69
2022-08-20T05:26:37.935Z,101057.50
2022-08-20T05:29:07.038Z,101072.13
2022-08-20T05:31:36.014Z,101060.00
2022-08-20T05:34:09.713Z,101054.25
2022-08-20T05:36:40.067Z,101073.28
2022-08-20T05:39:10.520Z,101065.03
2022-08-20T05:41:38.922Z,101070.22
2022-08-20T05:44:10.158Z,101071.94
2022-08-20T05:46:40.820Z,101054.97
2022-08-20T05:49:09.083Z,101073.31
2022-08-20T05:51:38.530Z,101069.91
2022-08-20T05:54:07.872Z,101071.97
2022-08-20T05:56:37.853Z,101081.28
2022-08-20T05:59:07.567Z,101079.69
2022-08-20T06:01:37.627Z,101069.94
2022-08-20T06:04:24.253Z,101066.59
2022-08-20T06:06:53.678Z,101068.06
2022-08-20T06:09:31.439Z,101072.34
2022-08-20T06:12:02.535Z,101072.34
2022-08-20T06:14:30.906Z,101062.06
2022-08-20T06:17:07.146Z,101060.63
2022-08-20T06:19:36.531Z,101053.03
2022-08-20T06:22:18.432Z,101029.97
2022-08-20T06:24:52.512Z,101021.25
2022-08-20T06:27:22.562Z,101018.78
2022-08-20T06:29:51.300Z,100989.13
2022-08-20T06:32:19.945Z,100985.50
2022-08-20T06:35:04.577Z,100987.66
2022-08-20T06:37:36.559Z,100981.06
2022-08-20T06:40:07.523Z,100956.03
2022-08-20T06:42:45.752Z,100949.56
2022-08-20T06:45:18.881Z,100962.06
2022-08-20T06:47:48.052Z,100959.41
2022-08-20T06:50:18.206Z,100958.63
2022-08-20T06:52:52.723Z,100973.25
2022-08-20T06:55:21.811Z,101007.19
2022-08-20T06:57:58.051Z,100997.72
2022-08-20T07:00:27.027Z,101039.66
2022-08-20T07:02:54.987Z,101220.56
2022-08-20T07:05:22.973Z,101359.97
2022-08-20T07:07:51.209Z,101404.97
2022-08-20T07:10:20.686Z,101354.44
2022-08-20T07:12:51.058Z,101094.94
2022-08-20T07:15:21.964Z,100696.06
2022-08-20T07:17:51.772Z,100597.19
2022-08-20T07:20:21.095Z,100244.28
2022-08-20T07:22:49.743Z,100609.50
2022-08-20T07:25:20.240Z,100794.84
2022-08-20T07:27:49.469Z,100859.66
2022-08-20T07:30:56.515Z,100817.09
2022-08-20T07:33:28.166Z,100810.63
2022-08-20T07:35:56.853Z,100785.38
2022-08-20T07:38:27.001Z,100813.44
2022-08-20T07:40:57.196Z,100875.75
2022-08-20T07:43:26.802Z,100876.47
2022-08-20T07:46:00.783Z,100872.66
2022-08-20T07:48:32.009Z,100864.84
2022-08-20T07:51:02.947Z,100900.09
2022-08-20T07:53:35.333Z,100866.59
2022-08-20T07:56:06.956Z,100870.03
2022-08-20T07:58:36.834Z,100906.34
2022-08-20T08:01:07.223Z,100829.16
2022-08-20T08:03:40.442Z,100751.28
2022-08-20T08:06:28.312Z,100754.31
2022-08-20T08:09:03.279Z,100751.13
2022-08-20T08:11:33.559Z,100733.22
2022-08-20T08:14:02.280Z,100733.38
2022-08-20T08:16:32.676Z,100677.66
2022-08-20T08:19:02.132Z,100691.72
2022-08-20T08:21:32.007Z,100680.59
2022-08-20T08:24:00.942Z,100595.16
2022-08-20T08:26:32.027Z,100608.69
2022-08-20T08:29:03.238Z,100577.91
2022-08-20T08:31:32.573Z,100625.72
2022-08-20T08:34:00.682Z,100612.47
2022-08-20T08:36:28.761Z,100620.31
2022-08-20T08:39:01.432Z,100578.91
2022-08-20T08:41:33.805Z,100520.53
2022-08-20T08:44:21.060Z,100520.88
2022-08-20T08:46:54.176Z,100557.50
2022-08-20T08:49:37.799Z,100534.00
2022-08-20T08:52:14.057Z,100556.78
2022-08-20T08:54:47.094Z,100533.78
2022-08-20T08:57:15.749Z,100493.16
2022-08-20T08:59:46.240Z,100501.47
2022-08-20T09:02:29.957Z,100483.88
2022-08-20T09:05:03.800Z,100502.16
2022-08-20T09:07:34.651Z,100512.16
2022-08-20T09:10:07.660Z,100485.84
2022-08-20T09:12:36.151Z,100461.03
2022-08-20T09:15:11.185Z,100495.53
2022-08-20T09:17:53.004Z,100488.72
2022-08-20T09:20:27.126Z,100479.09
2022-08-20T09:23:08.418Z,100495.16
2022-08-20T09:25:37.150Z,100448.50
2022-08-20T09:28:10.214Z,100448.50
2022-08-20T09:30:58.256Z,100448.66
2022-08-20T09:33:28.906Z,100399.38
2022-08-20T09:36:02.149Z,100401.63
2022-08-20T09:38:31.250Z,100397.44
2022-08-20T09:40:59.556Z,100436.97
2022-08-20T09:43:31.745Z,100393.97
2022-08-20T09:46:02.674Z,100379.38
2022-08-20T09:48:43.120Z,100417.94
2022-08-20T09:51:13.090Z,100421.16
2022-08-20T09:54:10.796Z,100411.13
2022-08-20T09:56:41.433Z,100341.72
2022-08-20T09:59:09.800Z,100340.16
2022-08-20T10:01:43.896Z,100325.06
2022-08-20T10:04:18.895Z,100364.63
2022-08-20T10:07:39.768Z,100381.13
2022-08-20T10:10:09.911Z,100297.91
2022-08-20T10:12:43.134Z,100427.44
2022-08-20T10:15:12.994Z,100287.28
2022-08-20T10:17:58.998Z,100259.94
2022-08-20T10:20:35.879Z,100218.59
2022-08-20T10:23:07.268Z,100265.38
2022-08-20T10:25:43.839Z,100284.22
2022-08-20T10:28:17.807Z,100309.97
2022-08-20T10:30:47.227Z,100324.56
2022-08-20T10:33:21.372Z,100278.28
2022-08-20T10:35:55.705Z,100275.66
2022-08-20T10:38:28.083Z,100293.63
2022-08-20T10:40:59.349Z,100351.91
2022-08-20T10:43:58.835Z,100403.97
2022-08-20T10:46:33.925Z,100254.78
2022-08-20T10:49:03.298Z,100246.00
2022-08-20T10:51:34.561Z,100212.16
2022-08-20T10:54:06.304Z,100177.97
2022-08-20T10:56:48.537Z,100227.41
2022-08-20T10:59:23.459Z,100311.44
2022-08-20T11:01:51.540Z,100288.81
2022-08-20T11:04:19.809Z,100228.31
2022-08-20T11:06:49.949Z,100225.09
2022-08-20T11:09:21.211Z,100171.84
2022-08-20T11:11:49.407Z,100174.75
2022-08-20T11:14:17.888Z,100158.63
2022-08-20T11:16:47.343Z,100191.91
2022-08-20T11:19:16.655Z,100174.78
2022-08-20T11:21:45.997Z,100249.19
2022-08-20T11:24:18.965Z,100168.22
2022-08-20T11:26:49.322Z,100136.59
2022-08-20T11:29:20.472Z,100111.72
2022-08-20T11:31:48.697Z,100076.69
2022-08-20T11:34:16.994Z,100039.97
2022-08-20T11:36:51.932Z,100094.09
2022-08-20T11:39:21.620Z,100128.16
2022-08-20T11:41:54.697Z,100131.13
2022-08-20T11:44:23.713Z,100106.72
2022-08-20T11:46:52.060Z,100149.13
2022-08-20T11:49:21.253Z,100108.19
2022-08-20T11:51:50.366Z,100070.34
2022-08-20T11:54:18.770Z,100052.47
2022-08-20T11:56:50.888Z,100139.50
2022-08-20T11:59:19.139Z,100088.72
2022-08-20T12:02:03.240Z,100174.75
2022-08-20T12:04:35.208Z,100187.31
2022-08-20T12:07:13.976Z,100156.16
2022-08-20T12:09:51.040Z,100119.91
2022-08-20T12:12:23.400Z,100146.00
2022-08-20T12:14:51.556Z,100167.13
2022-08-20T12:17:23.955Z,100225.22
2022-08-20T12:19:54.708Z,100103.13
2022-08-20T12:22:25.445Z,100059.91
2022-08-20T12:24:55.963Z,100036.91
2022-08-20T12:27:28.725Z,100055.19
2022-08-20T12:29:59.026Z,100151.06
2022-08-20T12:32:29.436Z,100169.66
2022-08-20T12:35:01.506Z,100174.75
2022-08-20T12:37:32.049Z,100222.41
2022-08-20T12:40:02.580Z,100240.22
2022-08-20T12:42:32.165Z,100293.72
2022-08-20T12:45:02.248Z,100249.25
2022-08-20T12:47:32.424Z,100121.63
2022-08-20T12:50:03.351Z,100116.41
2022-08-20T12:52:33.817Z,100085.41
2022-08-20T12:55:03.195Z,100072.78
2022-08-20T12:57:35.346Z,100004.72
2022-08-20T13:00:09.210Z,100008.25
2022-08-20T13:02:37.995Z,100044.88
2022-08-20T13:05:07.452Z,100027.38
2022-08-20T13:07:36.366Z,100081.91
2022-08-20T13:10:07.596Z,100065.78
2022-08-20T13:12:37.645Z,100057.28
2022-08-20T13:15:07.656Z,100035.03
2022-08-20T13:17:42.005Z,99979.41
2022-08-20T13:20:15.859Z,100005.59
2022-08-20T13:22:44.917Z,100006.44
2022-08-20T13:25:15.158Z,100024.50
2022-08-20T13:27:46.684Z,100060.34
2022-08-20T13:30:18.504Z,100114.81
2022-08-20T13:32:48.038Z,100070.16
2022-08-20T13:35:16.754Z,100068.44
2022-08-20T13:37:45.012Z,100076.59
2022-08-20T13:40:13.860Z,99970.50
2022-08-20T13:42:42.112Z,100048.81
2022-08-20T13:45:13.013Z,100083.91
2022-08-20T13:47:43.041Z,100143.53
2022-08-20T13:50:15.584Z,100127.03
2022-08-20T13:52:48.501Z,100085.28
2022-08-20T13:55:20.635Z,100082.88
2022-08-20T13:57:49.747Z,100030.50
2022-08-20T14:00:32.510Z,99994.56
2022-08-20T14:03:02.092Z,99943.81
2022-08-20T14:05:30.885Z,99922.25
2022-08-20T14:08:07.949Z,99989.31
2022-08-20T14:10:36.576Z,100009.13
2022-08-20T14:13:06.776Z,100010.34
2022-08-20T14:15:37.803Z,99943.06
2022-08-20T14:18:08.183Z,100017.13
2022-08-20T14:20:38.810Z,100039.00
2022-08-20T14:23:07.426Z,100029.97
2022-08-20T14:25:36.325Z,99956.47
2022-08-20T14:28:12.142Z,99922.22
2022-08-20T14:30:42.367Z,99938.47
2022-08-20T14:33:10.614Z,99896.97
2022-08-20T14:35:40.247Z,99935.03
2022-08-20T14:38:09.010Z,99922.13
2022-08-20T14:40:39.229Z,99946.75
2022-08-20T14:43:08.481Z,99905.78
2022-08-20T14:45:43.255Z,99906.16
2022-08-20T14:48:15.009Z,99958.28
2022-08-20T14:50:49.100Z,100018.25
2022-08-20T14:53:21.034Z,99973.28
2022-08-20T14:55:49.959Z,99960.16
2022-08-20T14:58:18.143Z,99907.97
2022-08-20T15:00:47.954Z,99932.69
2022-08-20T15:03:16.192Z,99872.13
2022-08-20T15:05:45.694Z,99855.75
2022-08-20T15:08:13.683Z,99858.31
2022-08-20T15:10:43.704Z,99876.06
2022-08-20T15:13:12.428Z,99845.94
2022-08-20T15:15:41.664Z,99879.25
2022-08-20T15:18:16.173Z,99921.41
2022-08-20T15:20:44.601Z,99915.16
2022-08-20T15:23:13.969Z,99852.56
2022-08-20T15:25:42.421Z,99872.22
2022-08-20T15:28:12.064Z,99858.66
2022-08-20T15:30:44.052Z,99860.34
2022-08-20T15:33:12.515Z,99880.41
2022-08-20T15:35:52.247Z,99989.06
2022-08-20T15:38:21.993Z,99921.75
2022-08-20T15:40:51.549Z,99878.38
2022-08-20T15:43:27.580Z,99914.25
2022-08-20T15:45:55.945Z,99967.53
2022-08-20T15:48:38.806Z,99950.88
2022-08-20T15:51:28.073Z,99849.28
2022-08-20T15:54:34.943Z,99900.84
2022-08-20T15:57:17.584Z,99963.13
2022-08-20T16:00:07.712Z,100047.53
2022-08-20T16:03:20.665Z,99988.41
2022-08-20T16:05:58.641Z,99962.38
2022-08-20T16:08:49.272Z,99957.72
2022-08-20T16:11:51.812Z,99894.44
2022-08-20T16:14:29.822Z,99831.69
2022-08-20T16:17:16.368Z,99819.94
2022-08-20T16:20:08.440Z,99791.78
2022-08-20T16:25:53.326Z,99809.50
2022-08-20T16:28:25.062Z,99797.75
2022-08-20T16:30:59.732Z,99843.19
2022-08-20T16:33:32.629Z,99902.91
2022-08-20T16:36:11.646Z,99910.97
2022-08-20T16:38:43.380Z,99902.28
2022-08-20T16:41:23.484Z,99911.28
2022-08-20T16:43:54.801Z,99970.28
2022-08-20T16:46:33.119Z,99916.75
2022-08-20T16:49:14.551Z,99879.16
2022-08-20T16:51:51.704Z,99870.13
2022-08-20T16:54:28.335Z,99911.34
2022-08-20T16:57:03.105Z,99903.66
2022-08-20T16:59:37.157Z,99889.72
2022-08-20T17:02:10.065Z,99879.69
2022-08-20T17:07:57.340Z,99844.22
2022-08-20T17:10:58.692Z,99822.66
2022-08-20T17:13:31.693Z,99850.44
2022-08-20T17:16:02.529Z,99824.75
2022-08-20T17:18:33.784Z,99851.53
2022-08-20T17:21:03.907Z,99856.94
2022-08-20T17:23:54.607Z,99843.34
2022-08-20T17:26:29.387Z,99848.97
2022-08-20T17:29:18.802Z,99835.41
2022-08-20T17:31:52.343Z,99857.91
2022-08-20T17:34:28.878Z,99831.00
2022-08-20T17:37:04.135Z,99852.94
2022-08-20T17:39:48.356Z,99838.63
2022-08-20T17:42:22.161Z,99815.09
2022-08-20T17:45:04.617Z,99813.13
2022-08-20T17:47:37.616Z,99828.28
2022-08-20T17:50:14.702Z,99838.88
2022-08-20T17:52:49.485Z,99803.00
2022-08-20T17:55:24.429Z,99823.84
2022-08-20T17:57:58.384Z,99833.63
2022-08-20T18:00:34.877Z,99796.88
2022-08-20T18:03:12.516Z,99788.34
2022-08-20T18:05:42.328Z,99804.72
2022-08-20T18:08:24.628Z,99809.16
2022-08-20T18:11:08.779Z,99811.03
2022-08-20T18:13:49.493Z,99852.28
2022-08-20T18:16:27.771Z,99883.00
2022-08-20T18:19:03.866Z,99889.75
2022-08-20T18:21:57.680Z,99982.47
2022-08-20T18:24:34.879Z,100046.16
2022-08-20T18:27:10.822Z,100113.59
2022-08-20T18:29:49.376Z,100155.72
2022-08-20T18:32:34.062Z,100251.69
2022-08-20T18:35:22.284Z,100370.66
2022-08-20T18:37:53.688Z,100406.44
2022-08-20T18:40:29.767Z,100463.16
2022-08-20T18:43:11.981Z,100484.03
2022-08-20T18:45:40.839Z,100506.03
2022-08-20T18:48:22.945Z,100538.91
2022-08-20T18:50:55.209Z,100663.06
2022-08-20T18:53:34.215Z,100718.38
2022-08-20T18:56:05.937Z,100941.75
2022-08-20T18:58:38.576Z,101117.13
2022-08-20T19:01:14.436Z,101138.50
2022-08-20T19:03:48.568Z,101173.47
2022-08-20T19:06:39.570Z,101203.84
2022-08-20T19:09:18.722Z,101230.25
2022-08-20T19:12:10.250Z,101227.97
2022-08-20T19:15:16.900Z,101225.09
2022-08-20T19:17:55.598Z,101231.94
2022-08-20T19:20:27.657Z,101215.06
2022-08-20T19:23:02.656Z,101197.75
2022-08-20T19:25:39.518Z,101149.50
2022-08-20T19:28:22.568Z,101116.72
2022-08-20T19:30:51.798Z,101107.38
2022-08-20T19:33:29.755Z,101092.53
2022-08-20T19:36:11.201Z,101093.00
2022-08-20T19:38:44.822Z,101112.16
2022-08-20T19:41:29.262Z,101113.13
2022-08-20T19:44:00.966Z,101150.38
2022-08-20T19:46:32.167Z,101186.66
2022-08-20T19:49:19.275Z,101230.88
2022-08-20T19:52:02.568Z,101265.03
2022-08-20T19:54:31.206Z,101278.31
2022-08-20T19:57:04.829Z,101355.56
2022-08-20T19:59:33.587Z,101372.91
2022-08-20T20:02:03.550Z,101486.72
2022-08-20T20:04:41.461Z,101573.22
2022-08-20T20:07:28.765Z,101539.97
2022-08-20T20:09:59.296Z,101508.00
2022-08-20T20:12:29.451Z,101506.81
2022-08-20T20:14:58.303Z,101495.94
2022-08-20T20:17:37.831Z,101492.88
2022-08-20T20:20:21.282Z,101481.44
2022-08-20T20:22:53.946Z,101455.53
2022-08-20T20:25:25.641Z,101474.59
2022-08-20T20:27:56.053Z,101469.09
2022-08-20T20:30:30.195Z,101465.44
2022-08-20T20:32:59.403Z,101461.53
2022-08-20T20:35:32.152Z,101460.69
2022-08-20T20:38:05.778Z,101448.84
2022-08-20T20:40:36.136Z,101449.50
2022-08-20T20:43:06.539Z,101455.09
2022-08-20T20:45:38.688Z,101457.53
2022-08-20T20:48:19.296Z,101448.66
2022-08-20T20:50:48.389Z,101445.69
2022-08-20T20:53:40.309Z,101447.41
2022-08-20T20:56:32.423Z,101445.44
2022-08-20T20:59:06.138Z,101451.66
2022-08-20T21:01:48.200Z,101443.44
2022-08-20T21:04:17.674Z,101438.00
2022-08-20T21:06:45.992Z,101428.75
2022-08-20T21:09:33.830Z,101429.97
2022-08-20T21:12:02.093Z,101429.09
2022-08-20T21:14:31.349Z,101431.59
2022-08-20T21:17:01.999Z,101423.84
2022-08-20T21:19:30.767Z,101429.97
2022-08-20T21:21:58.876Z,101431.28
2022-08-20T21:24:27.150Z,101419.78
2022-08-20T21:26:58.412Z,101411.34
2022-08-20T21:29:32.262Z,101390.13
2022-08-20T21:32:01.546Z,101394.53
2022-08-20T21:34:29.467Z,101403.13
2022-08-20T21:36:57.452Z,101398.38
2022-08-20T21:39:27.265Z,101403.41
2022-08-20T21:41:59.121Z,101393.22
2022-08-20T21:44:29.751Z,101388.03
2022-08-20T21:46:58.312Z,101378.09
2022-08-20T21:49:29.421Z,101378.03
2022-08-20T21:51:58.295Z,101377.56
2022-08-20T21:54:28.182Z,101375.97
2022-08-20T21:56:59.993Z,101371.53
2022-08-20T21:59:29.109Z,101353.75
2022-08-20T22:01:58.002Z,101348.94
2022-08-20T22:04:25.827Z,101339.09
2022-08-20T22:06:53.703Z,101324.91
2022-08-20T22:09:21.833Z,101329.72
2022-08-20T22:11:54.293Z,101324.03
2022-08-20T22:14:25.390Z,101304.75
2022-08-20T22:16:55.613Z,101319.19
2022-08-20T22:19:23.860Z,101313.13
2022-08-20T22:21:54.542Z,101310.06
2022-08-20T22:24:23.654Z,101312.09
2022-08-20T22:26:51.599Z,101311.00
2022-08-20T22:29:19.664Z,101309.53
2022-08-20T22:31:49.836Z,101294.94
2022-08-20T22:34:20.452Z,101295.47
2022-08-20T22:36:49.449Z,101298.09
2022-08-20T22:39:17.514Z,101302.53
2022-08-20T22:41:51.261Z,101299.44
2022-08-20T22:44:20.311Z,101292.63
2022-08-20T22:46:55.200Z,101289.44
2022-08-20T22:49:27.722Z,101280.50
2022-08-20T22:51:56.716Z,101271.84
2022-08-20T22:54:25.715Z,101256.72
2022-08-20T22:56:55.014Z,101270.06
2022-08-20T22:59:24.178Z,101250.13
2022-08-20T23:01:56.053Z,101264.72
2022-08-20T23:04:31.428Z,101245.03
2022-08-20T23:07:00.659Z,101255.38
2022-08-20T23:09:29.235Z,101245.78
2022-08-20T23:11:58.341Z,101231.00
2022-08-20T23:14:27.021Z,101230.47
2022-08-20T23:17:01.584Z,101217.81
2022-08-20T23:19:29.597Z,101221.91
2022-08-20T23:21:57.679Z,101212.63
2022-08-20T23:24:25.969Z,101223.25
2022-08-20T23:26:54.468Z,101216.72
2022-08-20T23:29:25.670Z,101222.72
2022-08-20T23:31:54.705Z,101207.81
2022-08-20T23:34:24.490Z,101204.22
2022-08-20T23:36:56.092Z,101201.16
2022-08-20T23:39:25.237Z,101196.38
2022-08-20T23:41:55.911Z,101195.88
2022-08-20T23:44:26.053Z,101191.41
2022-08-20T23:46:56.025Z,101189.13
2022-08-20T23:49:27.167Z,101184.69
2022-08-20T23:51:55.331Z,101181.84
2022-08-20T23:54:23.596Z,101184.28
2022-08-20T23:56:51.563Z,101167.78
2022-08-20T23:59:27.546Z,101178.72
